Dew Point Data


Current

Temp 31.0 F. Dew Point 30.0 F.


Dew Point Comfort Scale

dewpoints

Date, Time Temperature Dew Point
Thu Dec 19 00:08:05 2019 21.0 F. 19.0 F.
Thu Dec 19 01:08:05 2019 21.0 F. 19.0 F.
Thu Dec 19 02:08:05 2019 21.0 F. 19.0 F.
Thu Dec 19 03:08:04 2019 21.0 F. 18.0 F.
Thu Dec 19 04:08:04 2019 21.0 F. 18.0 F.
Thu Dec 19 05:08:05 2019 20.0 F. 18.0 F.
Thu Dec 19 06:08:05 2019 21.0 F. 19.0 F.
Thu Dec 19 07:08:04 2019 23.0 F. 19.9 F.
Thu Dec 19 08:08:05 2019 24.0 F. 21.9 F.
Thu Dec 19 09:08:05 2019 29.0 F. 25.0 F.
Thu Dec 19 10:08:05 2019 32.0 F. 23.0 F.
Thu Dec 19 11:08:05 2019 35.0 F. 23.0 F.
Thu Dec 19 12:08:05 2019 39.0 F. 23.0 F.
Thu Dec 19 13:08:05 2019 41.0 F. 24.1 F.
Thu Dec 19 14:08:05 2019 42.0 F. 27.0 F.
Thu Dec 19 15:08:05 2019 42.0 F. 26.1 F.
Thu Dec 19 16:08:05 2019 41.0 F. 26.1 F.
Thu Dec 19 17:08:05 2019 35.0 F. 26.1 F.
Thu Dec 19 18:08:05 2019 33.0 F. 26.1 F.
Thu Dec 19 19:08:05 2019 33.0 F. 25.0 F.
Thu Dec 19 20:08:05 2019 33.0 F. 24.1 F.
Thu Dec 19 21:08:05 2019 32.0 F. 24.1 F.
Thu Dec 19 22:08:05 2019 31.0 F. 23.0 F.
Thu Dec 19 23:08:05 2019 32.0 F. 23.0 F.
Fri Dec 20 00:08:05 2019 30.0 F. 23.0 F.
Fri Dec 20 01:08:05 2019 28.0 F. 23.0 F.
Fri Dec 20 02:08:05 2019 27.0 F. 21.9 F.
Fri Dec 20 03:08:06 2019 25.0 F. 21.9 F.
Fri Dec 20 04:08:04 2019 24.0 F. 21.9 F.
Fri Dec 20 05:08:05 2019 24.0 F. 21.0 F.
Fri Dec 20 06:08:04 2019 24.0 F. 21.0 F.
Fri Dec 20 07:08:06 2019 24.0 F. 21.9 F.
Fri Dec 20 08:08:05 2019 25.0 F. 21.9 F.
Fri Dec 20 09:08:04 2019 25.0 F. 21.9 F.
Fri Dec 20 10:08:05 2019 38.0 F. 28.9 F.
Fri Dec 20 11:08:05 2019 38.0 F. 28.9 F.
Fri Dec 20 12:08:05 2019 47.0 F. 27.0 F.
Fri Dec 20 13:08:04 2019 49.0 F. 25.0 F.
Fri Dec 20 14:08:06 2019 49.0 F. 25.0 F.
Fri Dec 20 15:08:05 2019 48.0 F. 26.1 F.
Fri Dec 20 16:08:04 2019 48.0 F. 26.1 F.
Fri Dec 20 17:08:06 2019 41.0 F. 28.0 F.
Fri Dec 20 18:08:05 2019 40.0 F. 27.0 F.
Fri Dec 20 19:08:04 2019 39.0 F. 26.1 F.
Fri Dec 20 20:08:05 2019 39.0 F. 26.1 F.
Fri Dec 20 21:08:05 2019 36.0 F. 27.0 F.
Fri Dec 20 22:08:05 2019 34.0 F. 28.9 F.
Fri Dec 20 23:08:05 2019 34.0 F. 28.9 F.
Sat Dec 21 00:08:05 2019 32.0 F. 28.0 F.
Sat Dec 21 01:08:06 2019 33.0 F. 28.9 F.
Sat Dec 21 02:08:06 2019 32.0 F. 28.9 F.
Sat Dec 21 03:08:05 2019 31.0 F. 28.0 F.
Sat Dec 21 04:08:05 2019 31.0 F. 27.0 F.
Sat Dec 21 05:08:05 2019 30.0 F. 28.0 F.
Sat Dec 21 06:08:04 2019 28.0 F. 27.0 F.
Sat Dec 21 07:08:05 2019 28.0 F. 27.0 F.
Sat Dec 21 08:08:05 2019 27.0 F. 25.0 F.
Sat Dec 21 09:08:05 2019 36.0 F. 30.9 F.
Sat Dec 21 10:08:05 2019 41.0 F. 34.0 F.
Sat Dec 21 11:08:05 2019 49.0 F. 33.1 F.
Sat Dec 21 12:08:05 2019 51.0 F. 30.9 F.
Sat Dec 21 13:08:05 2019 53.0 F. 28.9 F.
Sat Dec 21 14:08:05 2019 55.0 F. 28.9 F.
Sat Dec 21 15:08:05 2019 56.0 F. 30.0 F.
Sat Dec 21 16:08:05 2019 53.0 F. 30.9 F.
Sat Dec 21 17:08:04 2019 48.0 F. 30.9 F.
Sat Dec 21 18:08:05 2019 43.0 F. 30.9 F.
Sat Dec 21 19:08:05 2019 40.0 F. 30.9 F.
Sat Dec 21 20:08:05 2019 36.0 F. 30.0 F.
Sat Dec 21 21:08:05 2019 36.0 F. 30.0 F.
Sat Mon Jan 20 16:08:05 2020 24.0 F. | 16.0 F.
Mon Jan 20 17:08:05 2020 24.0 F. 16.0 F.
Mon Jan 20 18:08:05 2020 24.0 F. 17.1 F.
Mon Jan 20 19:08:06 2020 24.0 F. 16.0 F.
Mon Jan 20 20:08:05 2020 24.0 F. 17.1 F.
Mon Jan 20 21:08:46 2020
Mon Jan 20 22:08:05 2020 24.0 F. 17.1 F.
Mon Jan 20 23:08:04 2020 24.0 F. 17.1 F.
Tue Jan 21 00:08:05 2020 24.0 F. 17.1 F.
Tue Jan 21 01:08:05 2020 24.0 F. 17.1 F.
Tue Jan 21 02:08:05 2020 23.0 F. 18.0 F.
Tue Jan 21 03:08:04 2020 23.0 F. 18.0 F.
Tue Jan 21 04:08:04 2020 19.0 F. 16.0 F.
Tue Jan 21 05:08:05 2020 19.0 F. 16.0 F.
Tue Jan 21 06:08:05 2020 19.0 F. 16.0 F.
Tue Jan 21 07:08:05 2020 19.0 F. 16.0 F.
Tue Jan 21 08:08:04 2020 20.0 F. 18.0 F.
Tue Jan 21 09:08:05 2020 21.0 F. 19.0 F.
Tue Jan 21 10:08:04 2020 23.0 F. 19.9 F.
Tue Jan 21 11:08:05 2020 25.0 F. 19.9 F.
Tue Jan 21 12:08:05 2020 25.0 F. 19.9 F.
Tue Jan 21 13:08:05 2020 27.0 F. 18.0 F.
Tue Jan 21 14:08:05 2020 27.0 F. 17.1 F.
Tue Jan 21 15:08:05 2020 28.0 F. 18.0 F.
Tue Jan 21 16:08:05 2020 29.0 F. 18.0 F.
Tue Jan 21 17:08:05 2020 28.0 F. 19.0 F.
Tue Jan 21 18:08:06 2020 26.0 F. 18.0 F.
Tue Jan 21 19:08:05 2020 24.0 F. 17.1 F.
Tue Jan 21 20:08:06 2020 22.0 F. 17.1 F.
Tue Jan 21 21:08:10 2020 27.0 F. 17.1 F.
Tue Jan 21 22:08:05 2020 22.0 F. 17.1 F.
Tue Jan 21 23:08:05 2020 22.0 F. 17.1 F.
Wed Jan 22 00:08:13 2020 21.0 F. 17.1 F.
Wed Jan 22 01:08:28 2020 20.0 F. 16.0 F.
Wed Jan 22 02:08:05 2020 20.0 F. 16.0 F.
Wed Jan 22 03:09:00 2020
Wed Jan 22 04:09:00 2020
Wed Jan 22 05:09:00 2020
Wed Jan 22 06:09:00 2020
Wed Jan 22 07:09:00 2020
Wed Jan 22 08:08:59 2020
Wed Jan 22 09:08:59 2020
Wed Jan 22 10:08:15 2020 26.0 F. 19.9 F.
Wed Jan 22 11:08:14 2020 31.0 F. 21.9 F.
Wed Jan 22 12:08:14 2020 33.0 F. 21.9 F.
Wed Jan 22 13:08:15 2020 34.0 F. 21.9 F.
Wed Jan 22 14:08:15 2020 34.0 F. 21.9 F.
Wed Jan 22 15:08:15 2020 34.0 F. 21.0 F.
Wed Jan 22 16:08:29 2020 27.0 F. 17.1 F.
Wed Jan 22 17:08:32 2020 33.0 F. 19.9 F.
Wed Jan 22 18:08:14 2020 32.0 F. 19.9 F.
Wed Jan 22 19:08:15 2020 32.0 F. 21.0 F.
Wed Jan 22 20:08:14 2020 33.0 F. 21.0 F.
Wed Jan 22 21:08:15 2020 33.0 F. 21.0 F.
Wed Jan 22 22:08:15 2020 33.0 F. 21.0 F.
Wed Jan 22 23:08:15 2020 34.0 F. 21.9 F.
Thu Jan 23 00:08:14 2020 33.0 F. 21.9 F.
Thu Jan 23 01:08:16 2020 34.0 F. 21.9 F.
Thu Jan 23 02:08:14 2020 35.0 F. 21.0 F.
Thu Jan 23 03:08:14 2020 35.0 F. 23.0 F.
Thu Jan 23 04:08:15 2020 34.0 F. 27.0 F.
Thu Jan 23 05:08:14 2020 33.0 F. 28.9 F.
Thu Jan 23 06:08:15 2020 34.0 F. 28.9 F.
Thu Jan 23 07:08:15 2020 33.0 F. 30.0 F.
Thu Jan 23 08:08:14 2020 34.0 F. 28.9 F.
Thu Jan 23 09:08:15 2020 36.0 F. 28.9 F.
Thu Jan 23 10:08:15 2020 39.0 F. 28.0 F.
Thu Jan 23 11:08:06 2020 41.0 F. 27.0 F.
Thu Jan 23 12:08:05 2020 41.0 F. 30.9 F.
Thu Jan 23 13:08:05 2020 40.0 F. 34.0 F.
Thu Jan 23 14:08:05 2020 38.0 F. 36.0 F.
Thu Jan 23 15:08:07 2020 38.0 F. 36.0 F.
Thu Jan 23 16:08:10 2020 37.0 F. 36.0 F.
Thu Jan 23 17:08:04 2020 37.0 F. 36.0 F.
Thu Jan 23 18:08:05 2020 37.0 F. 36.0 F.
Thu Jan 23 19:08:05 2020 37.0 F. 36.0 F.
Thu Jan 23 20:08:05 2020 27.0 F. 17.1 F.
Thu Jan 23 21:08:05 2020 27.0 F. 17.1 F.
Thu Jan 23 22:08:05 2020 36.0 F. 35.1 F.
Thu Jan 23 23:08:14 2020 36.0 F. 36.0 F.
Fri Jan 24 00:08:05 2020 36.0 F. 35.1 F.
Fri Jan 24 01:08:05 2020 27.0 F. 17.1 F.
Fri Jan 24 02:08:05 2020 36.0 F. 35.1 F.
Fri Jan 24 03:08:06 2020 36.0 F. 35.1 F.
Fri Jan 24 04:08:05 2020 36.0 F. 35.1 F.
Fri Jan 24 05:08:05 2020 36.0 F. 35.1 F.
Fri Jan 24 06:08:05 2020 36.0 F. 35.1 F.
Fri Jan 24 07:08:05 2020 37.0 F. 36.0 F.
Fri Jan 24 08:08:05 2020 37.0 F. 36.0 F.
Fri Jan 24 09:08:04 2020 38.0 F. 37.0 F.
Fri Jan 24 10:08:05 2020 38.0 F. 37.0 F.
Fri Jan 24 11:08:05 2020 38.0 F. 36.0 F.
Fri Jan 24 12:08:05 2020 39.0 F. 36.0 F.
Fri Jan 24 13:08:05 2020 39.0 F. 37.0 F.
Fri Jan 24 14:08:05 2020 39.0 F. 36.0 F.
Fri Jan 24 15:08:04 2020 39.0 F. 36.0 F.
Fri Jan 24 16:08:05 2020 37.0 F. 34.0 F.
Fri Jan 24 17:08:05 2020 36.0 F. 33.1 F.
Fri Jan 24 18:08:05 2020 35.0 F. 32.0 F.
Fri Jan 24 19:08:04 2020 34.0 F. 32.0 F.
Fri Jan 24 20:08:05 2020 35.0 F. 32.0 F.
Fri Jan 24 21:08:05 2020 35.0 F. 32.0 F.
Fri Jan 24 22:08:05 2020 35.0 F. 32.0 F.
Fri Jan 24 23:08:08 2020 35.0 F. 30.9 F.
Sat Jan 25 00:08:05 2020 35.0 F. 30.9 F.
Sat Jan 25 01:08:05 2020 34.0 F. 30.9 F.
Sat Jan 25 02:08:05 2020 35.0 F. 30.9 F.
Sat Jan 25 03:08:05 2020 34.0 F. 30.9 F.
Sat Jan 25 04:08:05 2020 35.0 F. 30.9 F.
Sat Jan 25 05:08:08 2020 35.0 F. 30.0 F.
Sat Jan 25 06:08:05 2020 35.0 F. 30.0 F.
Sat Jan 25 07:08:05 2020 35.0 F. 28.9 F.
Sat Jan 25 08:08:05 2020 35.0 F. 28.9 F.
Sat Jan 25 09:08:05 2020 35.0 F. 30.0 F.
Sat Jan 25 10:08:04 2020 34.0 F. 30.0 F.
Sat Jan 25 11:08:04 2020 35.0 F. 28.9 F.
Sat Jan 25 12:08:05 2020 35.0 F. 28.9 F.
Sat Jan 25 13:08:05 2020 36.0 F. 30.0 F.
Sat Jan 25 14:08:05 2020 36.0 F. 28.9 F.
Sat Jan 25 15:08:05 2020 36.0 F. 28.9 F.
Sat Jan 25 16:08:04 2020 36.0 F. 28.9 F.
Sat Jan 25 17:08:05 2020 35.0 F. 28.9 F.
Sat Jan 25 18:08:05 2020 33.0 F. 28.0 F.
Sat Jan 25 19:08:05 2020 31.0 F. 27.0 F.
Sat Jan 25 20:08:05 2020 28.0 F. 26.1 F.
Sat Jan 25 21:08:04 2020 28.0 F. 26.1 F.
Sat Jan 25 22:08:05 2020 26.0 F. 25.0 F.
Sat Jan 25 23:08:05 2020 26.0 F. 24.1 F.
Sun Jan 26 00:08:06 2020 26.0 F. 24.1 F.
Sun Jan 26 01:08:05 2020 27.0 F. 26.1 F.
Sun Jan 26 02:08:05 2020 28.0 F. 27.0 F.
Sun Jan 26 03:08:05 2020 29.0 F. 27.0 F.
Sun Jan 26 04:08:05 2020 29.0 F. 28.0 F.
Sun Jan 26 05:08:05 2020 30.0 F. 28.9 F.
Sun Jan 26 06:08:05 2020 30.0 F. 28.9 F.
Sun Jan 26 07:08:05 2020 31.0 F. 28.9 F.
Sun Jan 26 08:08:06 2020 32.0 F. 28.9 F.
Sun Jan 26 09:08:05 2020 33.0 F. 30.0 F.
Sun Jan 26 10:08:05 2020 37.0 F. 32.0 F.
Sun Jan 26 11:08:05 2020 41.0 F. 35.1 F.
Sun Jan 26 12:08:05 2020 41.0 F. 35.1 F.
Sun Jan 26 13:08:05 2020 47.0 F. 37.0 F.
Sun Jan 26 14:08:05 2020 47.0 F. 37.0 F.
Sun Jan 26 15:08:05 2020 48.0 F. 37.9 F.
Sun Jan 26 16:08:05 2020 47.0 F. 39.0 F.
Sun Jan 26 17:08:05 2020 47.0 F. 39.0 F.
Sun Jan 26 18:08:05 2020 42.0 F. 37.9 F.
Sun Jan 26 19:08:06 2020 39.0 F. 37.0 F.
Sun Jan 26 20:08:05 2020 40.0 F. 37.9 F.
Sun Jan 26 21:08:04 2020 40.0 F. 37.9 F.
Sun Jan 26 22:08:04 2020 40.0 F. 37.0 F.
Sun Jan 26 23:08:04 2020 39.0 F. 36.0 F.
Mon Jan 27 00:08:05 2020 35.0 F. 34.0 F.
Mon Jan 27 01:08:17 2020 35.0 F. 34.0 F.
Mon Jan 27 02:08:05 2020 33.0 F. 30.9 F.
Mon Jan 27 03:08:05 2020 33.0 F. 30.9 F.
Mon Jan 27 04:08:04 2020 32.0 F. 30.0 F.
Mon Jan 27 05:08:04 2020 32.0 F. 30.0 F.
Mon Jan 27 06:08:05 2020 30.0 F. 28.9 F.
Mon Jan 27 07:08:05 2020 30.0 F. 28.9 F.
Mon Jan 27 08:08:05 2020 30.0 F. 28.9 F.
Mon Jan 27 09:08:05 2020 30.0 F. 30.0 F.
Mon Jan 27 10:08:05 2020 30.0 F. 30.0 F.
Mon Jan 27 11:08:05 2020 31.0 F. 30.0 F.
Mon Jan 27 12:08:04 2020 32.0 F. 30.9 F.
Mon Jan 27 13:08:05 2020 32.0 F. 30.9 F.
Mon Jan 27 14:08:05 2020 33.0 F. 30.9 F.
Mon Jan 27 15:08:05 2020 33.0 F. 30.9 F.
Mon Jan 27 16:08:05 2020 33.0 F. 30.0 F.
Mon Jan 27 17:08:05 2020 33.0 F. 30.0 F.
Mon Jan 27 18:08:05 2020 32.0 F. 30.0 F.
Mon Jan 27 19:08:05 2020 31.0 F. 28.9 F.
Mon Jan 27 20:08:05 2020 30.0 F. 28.0 F.
Mon Jan 27 21:08:05 2020 30.0 F. 28.9 F.
Mon Jan 27 22:08:05 2020 30.0 F. 28.9 F.
Mon Jan 27 23:08:05 2020 30.0 F. 28.0 F.
Tue Jan 28 00:08:04 2020 30.0 F. 28.0 F.
Tue Jan 28 01:08:05 2020 30.0 F. 28.9 F.
Tue Jan 28 02:08:06 2020 30.0 F. 28.9 F.
Tue Jan 28 03:08:05 2020 30.0 F. 28.9 F.
Tue Jan 28 04:08:05 2020 29.0 F. 28.0 F.
Tue Jan 28 05:08:04 2020 29.0 F. 28.0 F.
Tue Jan 28 06:08:05 2020 29.0 F. 28.0 F.
Tue Jan 28 07:08:05 2020 29.0 F. 28.0 F.
Tue Jan 28 08:08:05 2020 28.0 F. 27.0 F.
Tue Jan 28 09:08:05 2020 29.0 F. 28.0 F.
Tue Jan 28 10:08:06 2020 29.0 F. 28.0 F.
Tue Jan 28 11:08:04 2020 29.0 F. 28.0 F.
Tue Jan 28 12:08:05 2020 30.0 F. 27.0 F.
Tue Jan 28 13:08:05 2020 30.0 F. 28.0 F.
Tue Jan 28 14:08:10 2020 30.0 F. 28.0 F.
Tue Jan 28 15:08:04 2020 31.0 F. 28.0 F.
Tue Jan 28 16:08:05 2020 31.0 F. 28.9 F.
Tue Jan 28 17:08:05 2020 31.0 F. 28.9 F.
Tue Jan 28 18:08:05 2020 31.0 F. 28.9 F.
Tue Jan 28 19:08:05 2020 31.0 F. 28.9 F.
Tue Jan 28 20:08:05 2020 31.0 F. 28.9 F.
Tue Jan 28 21:08:05 2020 31.0 F. 30.0 F.
Tue Jan 28 22:08:05 2020 31.0 F. 30.0 F.
Tue Jan 28 23:08:05 2020 31.0 F. 30.0 F.
Wed Jan 29 00:08:05 2020 31.0 F. 30.0 F.
Wed Jan 29 01:08:05 2020 31.0 F. 30.0 F.